Time;durP1;ratioP1;P1;durP2;ratioP2;P2;SDS_P1;SDS_P2;PMS_P1;PMS_P2;Temp;Humidity;BMP_temperature;BMP_pressure;BME280_temperature;BME280_humidity;BME280_pressure;Samples;Min_cycle;Max_cycle;Signal;HPM_P1;HPM_P2
2021/11/01 00:00:19;;;;;;;34.40;21.30;;;;;;;;;;139238;1189;97117;-78
2021/11/01 00:03:43;;;;;;;36.90;22.70;;;;;;;;;;139331;1195;97255;-78
2021/11/01 00:06:47;;;;;;;39.00;23.90;;;;;;;;;;139348;1190;97169;-80
2021/11/01 00:09:51;;;;;;;39.30;24.10;;;;;;;;;;139249;1196;97238;-79
2021/11/01 00:12:55;;;;;;;39.70;23.80;;;;;;;;;;139233;1189;96307;-79
2021/11/01 00:15:59;;;;;;;40.00;24.70;;;;;;;;;;139210;1189;97568;-81
2021/11/01 00:19:02;;;;;;;40.40;25.00;;;;;;;;;;139243;1190;96367;-81
2021/11/01 00:22:06;;;;;;;39.70;24.70;;;;;;;;;;139370;1189;96631;-79
2021/11/01 00:25:10;;;;;;;37.70;22.10;;;;;;;;;;139217;1191;97576;-81
2021/11/01 00:28:15;;;;;;;40.10;21.10;;;;;;;;;;139187;1189;97179;-81
2021/11/01 00:31:19;;;;;;;39.70;22.80;;;;;;;;;;139233;1189;97556;-81
2021/11/01 00:34:23;;;;;;;39.10;22.50;;;;;;;;;;139280;1189;96316;-83
2021/11/01 00:37:28;;;;;;;41.20;23.90;;;;;;;;;;139334;1189;97582;-80
2021/11/01 00:40:32;;;;;;;40.70;23.70;;;;;;;;;;139310;1189;96303;-83
2021/11/01 00:43:35;;;;;;;38.60;23.70;;;;;;;;;;139617;1189;96279;-87
2021/11/01 00:46:39;;;;;;;40.10;24.40;;;;;;;;;;139554;1189;96386;-89
2021/11/01 00:49:43;;;;;;;39.50;24.20;;;;;;;;;;139730;1189;96319;-90
2021/11/01 00:52:47;;;;;;;37.70;24.30;;;;;;;;;;139510;1189;96294;-86
2021/11/01 00:55:52;;;;;;;44.40;24.00;;;;;;;;;;139490;1189;96279;-88
2021/11/01 00:58:56;;;;;;;36.70;21.20;;;;;;;;;;139689;1189;96704;-89
2021/11/01 01:02:00;;;;;;;39.30;21.60;;;;;;;;;;139424;1189;96316;-89
2021/11/01 01:05:05;;;;;;;36.80;22.40;;;;;;;;;;139463;1189;96294;-88
2021/11/01 01:08:09;;;;;;;38.40;23.40;;;;;;;;;;139418;1189;96300;-88
2021/11/01 01:11:13;;;;;;;38.50;23.20;;;;;;;;;;139404;1189;97571;-87
2021/11/01 01:14:25;;;;;;;43.40;24.50;;;;;;;;;;139630;1189;96317;-84
2021/11/01 01:17:29;;;;;;;41.40;23.60;;;;;;;;;;139304;1189;96280;-84
2021/11/01 01:20:33;;;;;;;42.70;24.40;;;;;;;;;;139337;1192;97554;-85
2021/11/01 01:23:37;;;;;;;38.20;21.60;;;;;;;;;;139735;1189;96296;-87
2021/11/01 01:26:41;;;;;;;37.10;21.10;;;;;;;;;;139638;1189;97549;-84
2021/11/01 01:29:45;;;;;;;37.60;22.60;;;;;;;;;;139355;1189;96308;-85
2021/11/01 01:32:49;;;;;;;44.90;23.20;;;;;;;;;;139322;1189;96344;-85
2021/11/01 01:35:53;;;;;;;39.70;24.00;;;;;;;;;;139730;1189;97278;-84
2021/11/01 01:38:57;;;;;;;39.80;23.30;;;;;;;;;;139731;1189;97669;-84
2021/11/01 01:42:00;;;;;;;39.80;23.90;;;;;;;;;;139435;1189;97136;-85
2021/11/01 01:45:06;;;;;;;41.50;24.70;;;;;;;;;;139453;1189;96386;-84
2021/11/01 01:48:12;;;;;;;38.20;23.00;;;;;;;;;;139455;1189;96329;-84
2021/11/01 01:51:17;;;;;;;39.60;22.10;;;;;;;;;;139323;1189;97580;-84
2021/11/01 01:54:21;;;;;;;36.30;21.30;;;;;;;;;;139436;1190;96256;-86
2021/11/01 01:57:25;;;;;;;35.30;20.90;;;;;;;;;;139310;1189;96307;-84
2021/11/01 02:00:46;;;;;;;36.30;22.00;;;;;;;;;;139413;1189;96257;-85
2021/11/01 02:03:51;;;;;;;36.80;22.20;;;;;;;;;;139379;1189;97107;-85
2021/11/01 02:07:09;;;;;;;35.80;22.40;;;;;;;;;;139363;1189;96351;-85
2021/11/01 02:10:15;;;;;;;40.30;23.20;;;;;;;;;;139353;1189;97116;-85
2021/11/01 02:13:21;;;;;;;38.10;23.80;;;;;;;;;;139352;1189;96408;-84
2021/11/01 02:16:28;;;;;;;38.70;23.20;;;;;;;;;;139417;1189;97521;-87
2021/11/01 02:19:37;;;;;;;37.30;23.40;;;;;;;;;;139413;1189;96326;-85
2021/11/01 02:22:48;;;;;;;36.20;22.00;;;;;;;;;;139533;1189;96389;-87
2021/11/01 02:25:53;;;;;;;37.30;21.40;;;;;;;;;;139476;1189;96380;-86
2021/11/01 02:28:57;;;;;;;37.20;21.50;;;;;;;;;;139732;1189;96314;-86
2021/11/01 02:32:01;;;;;;;37.30;21.90;;;;;;;;;;139729;1188;97553;-87
2021/11/01 02:35:06;;;;;;;38.90;22.40;;;;;;;;;;139415;1189;97568;-90
2021/11/01 02:38:12;;;;;;;40.30;22.80;;;;;;;;;;139816;1189;97107;-82
2021/11/01 02:41:20;;;;;;;38.50;23.30;;;;;;;;;;139646;1189;97592;-87
2021/11/01 02:44:27;;;;;;;38.60;23.40;;;;;;;;;;139306;1189;96693;-81
2021/11/01 02:47:31;;;;;;;40.30;23.00;;;;;;;;;;139333;1189;96372;-81
2021/11/01 02:50:36;;;;;;;38.40;21.80;;;;;;;;;;139326;1190;97553;-81
2021/11/01 02:53:40;;;;;;;37.10;21.70;;;;;;;;;;139319;1189;96687;-84
2021/11/01 02:56:44;;;;;;;38.20;21.60;;;;;;;;;;139362;1194;97552;-86
2021/11/01 02:59:48;;;;;;;38.60;22.30;;;;;;;;;;139356;1189;96371;-83
2021/11/01 03:02:52;;;;;;;38.90;23.30;;;;;;;;;;139416;1188;97127;-82
2021/11/01 03:05:56;;;;;;;40.80;22.90;;;;;;;;;;139403;1191;97557;-80
2021/11/01 03:09:01;;;;;;;35.70;22.40;;;;;;;;;;139277;1189;97655;-82
2021/11/01 03:12:07;;;;;;;40.00;22.70;;;;;;;;;;139366;1189;96379;-83
2021/11/01 03:15:17;;;;;;;37.30;22.60;;;;;;;;;;139391;1189;97574;-84
2021/11/01 03:18:21;;;;;;;39.80;22.50;;;;;;;;;;139291;1188;97659;-83
2021/11/01 03:21:27;;;;;;;41.00;23.00;;;;;;;;;;139482;1189;97640;-84
2021/11/01 03:24:32;;;;;;;33.80;19.80;;;;;;;;;;139701;1189;97169;-86
2021/11/01 03:27:37;;;;;;;40.00;22.10;;;;;;;;;;139483;1190;97553;-87
2021/11/01 03:30:43;;;;;;;33.90;20.90;;;;;;;;;;139448;1189;97550;-85
2021/11/01 03:33:47;;;;;;;38.50;22.30;;;;;;;;;;139551;1189;97538;-85
2021/11/01 03:36:52;;;;;;;37.20;22.60;;;;;;;;;;139583;1189;96784;-83
2021/11/01 03:39:57;;;;;;;36.20;22.60;;;;;;;;;;139260;1189;96314;-82
2021/11/01 03:43:03;;;;;;;37.80;23.10;;;;;;;;;;139450;1189;96385;-83
2021/11/01 03:46:08;;;;;;;37.60;22.40;;;;;;;;;;139487;1189;96290;-85
2021/11/01 03:49:13;;;;;;;38.90;22.00;;;;;;;;;;139444;1189;97566;-86
2021/11/01 03:52:21;;;;;;;35.10;19.40;;;;;;;;;;139288;1189;97565;-84
2021/11/01 03:55:28;;;;;;;34.10;20.60;;;;;;;;;;139393;1189;97553;-83
2021/11/01 03:58:33;;;;;;;37.40;22.20;;;;;;;;;;139532;1189;97152;-84
2021/11/01 04:01:39;;;;;;;36.50;21.20;;;;;;;;;;139515;1189;96316;-83
2021/11/01 04:04:44;;;;;;;34.90;21.70;;;;;;;;;;139408;1189;96306;-83
2021/11/01 04:07:49;;;;;;;38.00;21.80;;;;;;;;;;139378;1196;96300;-84
2021/11/01 04:10:53;;;;;;;39.00;22.80;;;;;;;;;;139414;1189;97551;-84
2021/11/01 04:14:00;;;;;;;36.10;21.10;;;;;;;;;;139895;1189;96271;-87
2021/11/01 04:17:10;;;;;;;36.40;21.40;;;;;;;;;;139617;1189;97063;-86
2021/11/01 04:20:28;;;;;;;37.60;21.50;;;;;;;;;;139448;1189;97176;-85
2021/11/01 04:23:35;;;;;;;34.70;18.80;;;;;;;;;;139662;1189;96287;-84
2021/11/01 04:26:39;;;;;;;35.80;21.20;;;;;;;;;;141365;1189;96311;-81
2021/11/01 04:29:43;;;;;;;36.90;21.60;;;;;;;;;;140661;1188;96268;-81
2021/11/01 04:32:51;;;;;;;35.30;21.80;;;;;;;;;;139624;1189;96376;-82
2021/11/01 04:35:55;;;;;;;35.80;20.60;;;;;;;;;;139428;1188;97545;-84
2021/11/01 04:39:06;;;;;;;37.40;23.00;;;;;;;;;;139376;1188;96382;-83
2021/11/01 04:42:40;;;;;;;35.80;21.50;;;;;;;;;;139394;1189;96416;-84
2021/11/01 04:55:49;;;;;;;33.10;20.20;;;;;;;;;;139444;1196;97160;-82
2021/11/01 04:58:54;;;;;;;34.30;20.60;;;;;;;;;;139455;1189;97582;-82
2021/11/01 05:01:58;;;;;;;36.40;21.80;;;;;;;;;;139574;1189;97276;-83
2021/11/01 05:05:02;;;;;;;37.30;22.00;;;;;;;;;;139621;1189;96351;-84
2021/11/01 05:08:06;;;;;;;37.30;23.00;;;;;;;;;;139625;1189;97567;-88
2021/11/01 05:11:16;;;;;;;36.60;22.30;;;;;;;;;;139494;1189;96276;-79
2021/11/01 05:14:27;;;;;;;39.20;23.50;;;;;;;;;;140125;1189;96282;-85
2021/11/01 05:17:39;;;;;;;39.20;23.60;;;;;;;;;;139881;1189;96294;-82
2021/11/01 05:20:47;;;;;;;39.40;22.80;;;;;;;;;;140976;1189;96857;-81
2021/11/01 05:23:55;;;;;;;39.10;22.70;;;;;;;;;;139898;1189;97557;-82
2021/11/01 05:27:34;;;;;;;34.00;19.30;;;;;;;;;;139384;1189;96737;-83
2021/11/01 05:30:41;;;;;;;35.40;21.00;;;;;;;;;;139514;1189;96386;-83
2021/11/01 05:33:55;;;;;;;36.30;22.90;;;;;;;;;;139620;1189;96307;-82
2021/11/01 05:36:59;;;;;;;33.50;21.10;;;;;;;;;;139459;1189;96308;-82
2021/11/01 05:40:04;;;;;;;38.30;23.80;;;;;;;;;;139313;1190;97544;-82
2021/11/01 05:43:08;;;;;;;37.40;22.80;;;;;;;;;;139589;1189;96381;-81
2021/11/01 05:46:13;;;;;;;37.80;23.40;;;;;;;;;;139472;1189;96292;-82
2021/11/01 05:49:19;;;;;;;38.00;21.60;;;;;;;;;;139535;1188;97143;-80
2021/11/01 05:52:27;;;;;;;47.30;28.10;;;;;;;;;;139370;1188;96268;-87
2021/11/01 05:55:38;;;;;;;34.20;20.20;;;;;;;;;;139295;1188;96308;-84
2021/11/01 05:58:51;;;;;;;36.30;21.90;;;;;;;;;;139562;1192;97112;-84
2021/11/01 06:02:30;;;;;;;39.30;22.90;;;;;;;;;;139692;1187;96339;-78
2021/11/01 06:09:20;;;;;;;36.80;22.30;;;;;;;;;;139435;1188;96287;-81
2021/11/01 06:15:46;;;;;;;39.00;22.50;;;;;;;;;;139791;1187;96301;-84
2021/11/01 06:18:52;;;;;;;35.20;21.40;;;;;;;;;;139656;1187;97569;-82
2021/11/01 06:21:56;;;;;;;34.50;20.30;;;;;;;;;;139652;1187;97516;-82
2021/11/01 06:25:05;;;;;;;34.10;19.00;;;;;;;;;;139660;1189;97122;-83
2021/11/01 06:28:12;;;;;;;32.30;20.30;;;;;;;;;;139644;1187;96281;-85
2021/11/01 06:31:20;;;;;;;34.00;20.30;;;;;;;;;;139770;1187;96312;-86
2021/11/01 06:34:42;;;;;;;30.80;19.60;;;;;;;;;;139756;1187;96709;-88
2021/11/01 06:41:30;;;;;;;31.20;19.30;;;;;;;;;;139649;1189;97146;-83
2021/11/01 06:44:47;;;;;;;31.20;19.70;;;;;;;;;;139561;1189;96360;-85
2021/11/01 06:51:25;;;;;;;29.50;17.60;;;;;;;;;;139712;1187;97584;-79
2021/11/01 06:57:53;;;;;;;30.50;19.10;;;;;;;;;;139381;1189;97569;-77
2021/11/01 07:14:39;;;;;;;28.90;18.30;;;;;;;;;;139719;1187;96303;-84
2021/11/01 07:17:46;;;;;;;29.00;19.60;;;;;;;;;;139748;1187;97655;-82
2021/11/01 07:21:01;;;;;;;27.00;17.10;;;;;;;;;;139695;1189;97113;-83
2021/11/01 08:21:42;;;;;;;21.30;14.00;;;;;;;;;;139203;1189;97052;-85
2021/11/01 08:28:18;;;;;;;19.80;13.90;;;;;;;;;;139480;1189;97543;-85
2021/11/01 08:41:36;;;;;;;22.40;14.60;;;;;;;;;;139461;1190;96338;-83
2021/11/01 08:45:10;;;;;;;21.00;13.10;;;;;;;;;;139427;1196;97412;-81
2021/11/01 08:51:47;;;;;;;20.30;13.30;;;;;;;;;;139297;1189;96405;-82
2021/11/01 09:01:50;;;;;;;19.40;13.10;;;;;;;;;;139312;1196;96737;-82
2021/11/01 09:18:54;;;;;;;19.70;12.90;;;;;;;;;;139643;1187;96939;-84
2021/11/01 09:22:28;;;;;;;17.50;12.10;;;;;;;;;;139589;1187;96737;-87
2021/11/01 09:25:54;;;;;;;18.60;13.00;;;;;;;;;;139579;1187;97540;-82
2021/11/01 09:29:02;;;;;;;18.20;12.30;;;;;;;;;;139623;1187;97001;-88
2021/11/01 09:35:53;;;;;;;18.80;12.00;;;;;;;;;;140074;1187;96298;-84
2021/11/01 09:42:24;;;;;;;16.70;11.80;;;;;;;;;;139608;1187;97686;-82
2021/11/01 09:45:31;;;;;;;17.80;11.80;;;;;;;;;;139706;1187;96287;-81
2021/11/01 09:53:18;;;;;;;17.30;11.30;;;;;;;;;;139701;1187;96286;-81
2021/11/01 09:56:30;;;;;;;17.60;11.60;;;;;;;;;;139699;1186;97134;-77
2021/11/01 09:59:36;;;;;;;16.30;11.20;;;;;;;;;;139667;1186;97553;-81
2021/11/01 10:02:47;;;;;;;16.40;11.60;;;;;;;;;;139574;1187;97141;-80
2021/11/01 10:05:55;;;;;;;24.80;16.70;;;;;;;;;;139574;1187;96352;-85
2021/11/01 10:09:00;;;;;;;17.60;12.00;;;;;;;;;;139799;1186;96315;-83
2021/11/01 10:12:05;;;;;;;17.10;11.70;;;;;;;;;;139666;1186;96279;-84
2021/11/01 10:18:32;;;;;;;17.70;11.10;;;;;;;;;;139707;1187;97582;-84
2021/11/01 10:21:37;;;;;;;14.90;11.00;;;;;;;;;;139513;1187;96388;-86
2021/11/01 10:24:42;;;;;;;15.10;10.90;;;;;;;;;;139498;1187;96726;-81
2021/11/01 10:27:51;;;;;;;14.40;10.80;;;;;;;;;;139664;1187;96362;-79
2021/11/01 10:31:04;;;;;;;15.80;10.40;;;;;;;;;;139578;1186;97534;-79
2021/11/01 10:34:10;;;;;;;16.90;10.80;;;;;;;;;;139721;1189;96265;-83
2021/11/01 10:37:21;;;;;;;15.30;10.50;;;;;;;;;;139745;1189;96391;-85
2021/11/01 10:40:26;;;;;;;16.20;10.50;;;;;;;;;;139706;1187;96381;-83
2021/11/01 10:43:57;;;;;;;15.10;10.90;;;;;;;;;;139669;1187;96287;-83
2021/11/01 10:57:29;;;;;;;14.80;10.80;;;;;;;;;;139555;1187;96318;-84
2021/11/01 11:14:20;;;;;;;14.80;10.00;;;;;;;;;;139408;1190;96289;-82
2021/11/01 11:17:33;;;;;;;14.40;9.60;;;;;;;;;;139464;1180;96709;-81
2021/11/01 11:20:53;;;;;;;13.30;9.40;;;;;;;;;;139457;1190;97141;-83
2021/11/01 11:27:52;;;;;;;14.50;9.30;;;;;;;;;;139437;1190;97646;-82
2021/11/01 11:48:15;;;;;;;12.90;9.30;;;;;;;;;;139489;1189;97152;-84
2021/11/01 11:51:25;;;;;;;12.00;8.90;;;;;;;;;;139409;1189;96290;-83
2021/11/01 11:54:33;;;;;;;13.00;9.00;;;;;;;;;;139416;1190;96274;-83
2021/11/01 11:57:38;;;;;;;13.30;9.70;;;;;;;;;;139428;1195;97158;-83
2021/11/01 12:00:43;;;;;;;15.40;9.80;;;;;;;;;;139510;1190;97631;-84
2021/11/01 12:03:48;;;;;;;14.20;9.70;;;;;;;;;;139531;1189;96308;-83
2021/11/01 12:06:56;;;;;;;12.50;9.30;;;;;;;;;;139535;1189;97539;-83
2021/11/01 12:10:03;;;;;;;12.00;9.30;;;;;;;;;;139469;1191;96331;-81
2021/11/01 12:13:14;;;;;;;12.60;8.90;;;;;;;;;;139581;1190;96289;-87
2021/11/01 12:19:40;;;;;;;13.30;9.30;;;;;;;;;;139611;1190;96898;-86
2021/11/01 12:22:49;;;;;;;12.50;8.90;;;;;;;;;;139779;1187;96416;-87
2021/11/01 12:25:53;;;;;;;12.30;8.90;;;;;;;;;;139524;1187;96296;-89
2021/11/01 12:28:59;;;;;;;13.40;9.00;;;;;;;;;;139611;1187;97530;-81
2021/11/01 12:32:07;;;;;;;13.90;9.30;;;;;;;;;;139611;1186;96340;-90
2021/11/01 12:35:16;;;;;;;13.20;9.10;;;;;;;;;;139595;1187;96286;-86
2021/11/01 12:38:31;;;;;;;12.70;9.30;;;;;;;;;;139627;1187;96713;-81
2021/11/01 12:41:45;;;;;;;14.20;8.90;;;;;;;;;;139906;1187;96290;-81
2021/11/01 12:58:20;;;;;;;13.70;8.90;;;;;;;;;;139814;1190;97001;-86
2021/11/01 13:37:40;;;;;;;12.50;9.40;;;;;;;13.62;58.85;99169.23;138970;1197;109184;-80
2021/11/01 13:40:50;;;;;;;13.60;9.40;;;;;;;13.60;58.71;99166.70;139318;1195;108436;-81
2021/11/01 13:44:08;;;;;;;13.40;9.80;;;;;;;13.57;59.03;99165.41;139096;1196;108368;-81
2021/11/01 13:47:17;;;;;;;13.90;10.30;;;;;;;13.53;58.81;99163.54;139358;1196;108470;-83
2021/11/01 13:50:26;;;;;;;14.60;10.30;;;;;;;13.51;58.73;99160.23;139172;1194;108404;-85
2021/11/01 13:53:36;;;;;;;13.20;9.80;;;;;;;13.49;58.83;99161.28;139160;1195;107405;-84
2021/11/01 13:56:44;;;;;;;13.00;9.70;;;;;;;13.46;58.75;99163.42;139156;1195;107627;-87
2021/11/01 13:59:56;;;;;;;14.10;9.60;;;;;;;13.43;58.83;99159.23;139000;1194;107453;-84
2021/11/01 14:03:26;;;;;;;14.60;10.20;;;;;;;13.38;58.86;99158.10;139253;1195;107464;-88
2021/11/01 14:13:33;;;;;;;13.80;10.20;;;;;;;13.20;58.79;99161.59;139552;1192;107534;-82
2021/11/01 14:16:44;;;;;;;17.10;10.50;;;;;;;13.13;58.83;99159.71;139659;1190;108687;-85
2021/11/01 14:20:07;;;;;;;14.60;10.30;;;;;;;13.07;58.87;99163.70;139660;1190;106695;-85
2021/11/01 14:30:33;;;;;;;15.60;11.40;;;;;;;12.85;58.90;99161.73;139381;1183;108504;-83
2021/11/01 15:01:00;;;;;;;26.50;18.00;;;;;;;12.02;59.06;99164.23;139412;1190;108649;-85
2021/11/01 15:14:36;;;;;;;23.70;17.00;;;;;;;11.46;59.82;99166.39;139428;1193;107256;-81
2021/11/01 15:21:13;;;;;;;28.20;18.10;;;;;;;11.20;60.08;99166.20;139310;1190;107989;-83
2021/11/01 15:24:28;;;;;;;33.60;21.00;;;;;;;11.09;60.02;99168.13;139413;1192;108160;-83
2021/11/01 15:35:05;;;;;;;35.90;21.00;;;;;;;10.74;60.51;99174.09;139749;1190;108478;-85
2021/11/01 15:38:40;;;;;;;31.10;20.70;;;;;;;10.60;60.71;99176.54;139744;1190;108390;-82
2021/11/01 16:19:13;;;;;;;40.80;28.30;;;;;;;9.77;61.44;99182.39;139572;1190;107360;-87
2021/11/01 16:22:19;;;;;;;32.60;23.10;;;;;;;9.73;61.48;99187.07;139426;1193;106212;-87
2021/11/01 16:25:25;;;;;;;31.10;21.40;;;;;;;9.69;61.50;99185.94;139371;1190;107437;-85
2021/11/01 16:28:33;;;;;;;30.90;20.60;;;;;;;9.65;61.59;99184.91;139461;1191;107477;-85
2021/11/01 16:31:45;;;;;;;32.60;22.00;;;;;;;9.61;61.62;99187.13;139339;1190;108546;-84
2021/11/01 16:34:55;;;;;;;35.00;23.90;;;;;;;9.57;61.92;99188.34;139362;1193;108456;-84
2021/11/01 16:38:09;;;;;;;32.10;21.20;;;;;;;9.53;61.97;99188.39;139403;1190;108226;-86
2021/11/01 16:41:15;;;;;;;60.70;36.50;;;;;;;9.49;61.99;99189.30;139406;1190;107469;-82
2021/11/01 16:44:24;;;;;;;40.00;25.50;;;;;;;9.45;62.05;99189.29;139296;1190;108246;-82
2021/11/01 16:47:32;;;;;;;118.30;61.00;;;;;;;9.44;62.05;99190.25;139270;1190;107546;-80
2021/11/01 16:50:38;;;;;;;115.40;57.20;;;;;;;9.48;61.95;99189.91;139277;1190;108406;-82
2021/11/01 16:53:48;;;;;;;98.70;50.20;;;;;;;9.52;62.12;99191.80;138984;1193;108413;-86
2021/11/01 16:57:02;;;;;;;75.60;41.10;;;;;;;9.52;62.06;99192.42;139101;1190;107546;-81
2021/11/01 17:00:19;;;;;;;49.00;29.70;;;;;;;9.51;62.32;99191.84;139057;1190;108765;-80
2021/11/01 17:03:34;;;;;;;34.60;22.00;;;;;;;9.49;62.02;99192.27;139086;1192;106876;-82
2021/11/01 17:06:44;;;;;;;57.20;33.70;;;;;;;9.45;62.49;99188.39;139063;1198;108345;-82
2021/11/01 17:24:02;;;;;;;60.10;38.10;;;;;;;9.15;62.50;99198.20;139183;1193;108454;-82
2021/11/01 17:27:32;;;;;;;;;;;;;;;9.07;62.74;99197.27;139137;1192;108209;-83
2021/11/01 17:37:38;;;;;;;35.90;20.00;;;;;;;8.84;63.04;99197.98;139510;1193;108606;-82
2021/11/01 18:42:21;;;;;;;98.90;53.80;;;;;;;8.31;64.69;99178.34;139414;1189;108595;-87
2021/11/01 18:52:23;;;;;;;63.80;32.80;;;;;;;8.17;65.01;99174.20;139475;1189;108504;-84
2021/11/01 18:55:29;;;;;;;139.70;63.80;;;;;;;8.18;65.15;99174.77;140369;1190;107608;-80
2021/11/01 18:58:36;;;;;;;141.60;64.60;;;;;;;8.19;65.18;99174.84;139838;1190;108446;-83
2021/11/01 19:01:49;;;;;;;71.90;36.80;;;;;;;8.20;64.98;99167.96;139768;1189;107441;-83
2021/11/01 19:05:00;;;;;;;112.60;50.50;;;;;;;8.21;65.30;99165.02;140124;1180;108330;-83
2021/11/01 19:08:16;;;;;;;159.90;70.40;;;;;;;8.20;65.12;99168.14;139661;1181;108437;-86
2021/11/01 19:12:02;;;;;;;155.00;64.00;;;;;;;8.17;65.28;99167.93;139734;1190;108378;-84
2021/11/01 20:13:24;;;;;;;124.40;51.00;;;;;;;7.47;66.47;99140.27;139439;1190;108483;-84
2021/11/01 21:24:50;;;;;;;42.70;28.20;;;;;;;6.94;67.39;99135.16;139296;1190;108449;-85
2021/11/01 21:27:56;;;;;;;36.00;23.50;;;;;;;6.95;67.45;99133.11;139469;1190;108362;-85
2021/11/01 21:31:01;;;;;;;40.80;26.90;;;;;;;6.94;67.05;99129.52;139621;1189;108409;-84
2021/11/01 21:34:07;;;;;;;40.90;25.10;;;;;;;6.88;67.52;99128.87;139438;1191;108465;-85
2021/11/01 21:37:13;;;;;;;40.10;26.60;;;;;;;6.81;67.47;99125.91;139386;1191;108639;-86
2021/11/01 21:40:19;;;;;;;39.40;25.60;;;;;;;6.73;67.09;99125.10;139517;1193;108485;-85
2021/11/01 21:43:24;;;;;;;37.70;24.40;;;;;;;6.68;67.56;99125.39;139326;1190;108370;-83
2021/11/01 21:46:30;;;;;;;38.90;24.30;;;;;;;6.63;67.84;99130.33;139417;1190;107507;-83
2021/11/01 21:49:35;;;;;;;36.20;22.50;;;;;;;6.57;67.61;99130.63;139381;1190;108346;-83
2021/11/01 21:52:43;;;;;;;36.60;22.40;;;;;;;6.54;67.83;99127.36;139441;1189;108615;-84
2021/11/01 21:55:49;;;;;;;40.90;25.60;;;;;;;6.53;67.91;99130.14;139414;1190;108644;-83
2021/11/01 21:59:11;;;;;;;39.10;25.70;;;;;;;6.55;67.77;99128.52;139525;1189;108455;-85
2021/11/01 22:22:56;;;;;;;88.20;49.90;;;;;;;6.44;68.33;99107.55;139746;1189;108377;-85
2021/11/01 22:26:05;;;;;;;84.40;44.00;;;;;;;6.38;68.37;99105.34;139320;1190;108488;-82
2021/11/01 22:32:56;;;;;;;61.20;33.60;;;;;;;6.39;68.70;99095.02;139339;1190;108597;-82
2021/11/01 22:39:30;;;;;;;62.40;34.10;;;;;;;6.46;68.39;99085.77;139208;1190;108491;-82
2021/11/01 22:42:43;;;;;;;47.10;27.70;;;;;;;6.46;68.59;99081.32;139385;1189;108122;-82
2021/11/01 22:46:05;;;;;;;69.20;38.20;;;;;;;6.46;68.80;99076.29;141469;1189;108328;-86
2021/11/01 22:56:20;;;;;;;82.70;42.30;;;;;;;6.33;68.81;99076.13;141251;1190;107490;-84
2021/11/01 22:59:27;;;;;;;65.90;37.70;;;;;;;6.33;69.00;99073.84;139452;1190;108405;-84
2021/11/01 23:02:33;;;;;;;56.40;32.50;;;;;;;6.37;68.97;99067.31;139593;1190;108365;-86
2021/11/01 23:06:03;;;;;;;61.50;35.50;;;;;;;6.41;69.01;99061.71;139526;1189;107538;-84
2021/11/01 23:32:52;;;;;;;46.00;26.70;;;;;;;6.21;69.45;99033.50;139289;1190;107620;-81
2021/11/01 23:35:58;;;;;;;95.70;61.20;;;;;;;6.21;69.51;99037.94;139410;1190;107403;-82
2021/11/01 23:39:04;;;;;;;61.00;37.70;;;;;;;6.21;69.44;99034.04;139441;1189;108885;-87
2021/11/01 23:42:10;;;;;;;60.20;33.70;;;;;;;6.19;69.49;99029.48;139425;1189;109611;-89
2021/11/01 23:45:15;;;;;;;84.30;42.60;;;;;;;6.16;69.30;99031.77;139550;1189;108578;-86
2021/11/01 23:48:21;;;;;;;75.90;38.80;;;;;;;6.11;69.50;99030.71;139693;1193;108456;-87
2021/11/01 23:51:31;;;;;;;167.70;63.50;;;;;;;6.05;69.58;99029.17;139629;1189;108857;-83
2021/11/01 23:54:43;;;;;;;216.30;79.60;;;;;;;6.01;69.85;99026.23;139572;1190;108874;-82
2021/11/01 23:57:48;;;;;;;258.60;94.50;;;;;;;6.02;69.77;99019.96;139502;1190;108374;-86
